Time,TemperatureF,DewpointF,PressureIn,WindDirection,WindDirectionDegrees,WindSpeedMPH,WindSpeedGustMPH,Humidity,HourlyPrecipIn,Conditions,Clouds,dailyrainin,SoftwareType,DateUTC
2013-03-10 00:00:00,49.8,46.0,30.18,WSW,252,0.0,0.0,86,0.00,,,0.00,weatherlink.com 1.10,2013-03-10 08:00:00,
2013-03-10 00:15:00,49.8,46.0,30.18,WSW,252,0.0,0.0,87,0.00,,,0.00,weatherlink.com 1.10,2013-03-10 08:15:00,
2013-03-10 00:30:00,50.0,46.0,30.18,WSW,252,0.0,0.0,87,0.00,,,0.00,weatherlink.com 1.10,2013-03-10 08:30:00,
2013-03-10 00:45:00,50.3,47.0,30.18,ESE,113,1.0,1.0,87,0.00,,,0.00,weatherlink.com 1.10,2013-03-10 08:45:00,
2013-03-10 01:00:00,50.5,47.0,30.19,ESE,113,0.0,1.0,86,0.00,,,0.00,weatherlink.com 1.10,2013-03-10 09:00:00,
2013-03-10 01:15:00,50.4,46.0,30.19,ESE,113,0.0,2.0,85,0.00,,,0.00,weatherlink.com 1.10,2013-03-10 09:15:00,
2013-03-10 01:30:00,50.1,46.0,30.19,ESE,113,0.0,0.0,84,0.00,,,0.00,weatherlink.com 1.10,2013-03-10 09:30:00,
2013-03-10 01:45:00,50.0,45.0,30.19,ESE,113,0.0,0.0,84,0.00,,,0.00,weatherlink.com 1.10,2013-03-10 09:45:00,
2013-03-10 03:00:00,49.4,45.0,30.19,ESE,112,1.0,1.0,84,0.00,,,0.00,weatherlink.com 1.10,2013-03-10 10:00:00,
2013-03-10 03:15:00,49.0,44.0,30.18,SW,221,0.0,1.0,84,0.00,,,0.00,weatherlink.com 1.10,2013-03-10 10:15:00,
2013-03-10 03:30:00,48.4,44.0,30.18,SW,221,0.0,1.0,85,0.00,,,0.00,weatherlink.com 1.10,2013-03-10 10:30:00,
2013-03-10 03:45:00,47.7,43.0,30.18,SW,221,0.0,0.0,85,0.00,,,0.00,weatherlink.com 1.10,2013-03-10 10:45:00,
2013-03-10 04:00:00,47.2,43.0,30.18,SW,221,0.0,0.0,86,0.00,,,0.00,weatherlink.com 1.10,2013-03-10 11:00:00,
2013-03-10 04:15:00,46.8,43.0,30.18,SW,221,0.0,1.0,86,0.00,,,0.00,weatherlink.com 1.10,2013-03-10 11:15:00,
2013-03-10 04:30:00,46.8,43.0,30.18,SW,222,0.0,0.0,86,0.00,,,0.00,weatherlink.com 1.10,2013-03-10 11:30:00,
2013-03-10 04:45:00,46.6,43.0,30.18,SW,222,0.0,1.0,87,0.00,,,0.00,weatherlink.com 1.10,2013-03-10 11:45:00,
2013-03-10 05:00:00,46.2,43.0,30.17,SW,221,0.0,0.0,87,0.00,,,0.00,weatherlink.com 1.10,2013-03-10 12:00:00,
2013-03-10 05:15:00,46.2,43.0,30.18,SW,222,0.0,0.0,87,0.00,,,0.00,weatherlink.com 1.10,2013-03-10 12:15:00,
2013-03-10 05:30:00,45.7,42.0,30.18,SW,222,0.0,0.0,87,0.00,,,0.00,weatherlink.com 1.10,2013-03-10 12:30:00,
2013-03-10 05:45:00,45.5,42.0,30.20,WSW,248,0.0,1.0,87,0.00,,,0.00,weatherlink.com 1.10,2013-03-10 12:45:00,
2013-03-10 06:00:00,45.2,42.0,30.19,WSW,248,0.0,1.0,87,0.00,,,0.00,weatherlink.com 1.10,2013-03-10 13:00:00,
2013-03-10 06:15:00,45.0,42.0,30.19,WSW,248,0.0,1.0,88,0.00,,,0.00,weatherlink.com 1.10,2013-03-10 13:15:00,
2013-03-10 06:30:00,44.9,42.0,30.20,WSW,248,0.0,0.0,88,0.00,,,0.00,weatherlink.com 1.10,2013-03-10 13:30:00,
2013-03-10 06:45:00,44.8,42.0,30.20,WSW,248,0.0,1.0,88,0.00,,,0.00,weatherlink.com 1.10,2013-03-10 13:45:00,
2013-03-10 07:01:00,44.7,41.0,30.21,WSW,248,0.0,1.0,88,0.00,,,0.00,weatherlink.com 1.10,2013-03-10 14:01:00,
2013-03-10 07:16:00,44.4,41.0,30.21,WSW,248,0.0,0.0,88,0.00,,,0.00,weatherlink.com 1.10,2013-03-10 14:16:00,
2013-03-10 07:31:00,44.4,41.0,30.21,WSW,248,0.0,0.0,88,0.00,,,0.00,weatherlink.com 1.10,2013-03-10 14:31:00,
2013-03-10 07:46:00,46.4,43.0,30.22,WSW,248,0.0,0.0,89,0.00,,,0.00,weatherlink.com 1.10,2013-03-10 14:46:00,
2013-03-10 08:01:00,47.2,44.0,30.22,WSW,248,0.0,0.0,88,0.00,,,0.00,weatherlink.com 1.10,2013-03-10 15:01:00,
2013-03-10 08:16:00,50.0,45.0,30.22,West,277,0.0,1.0,83,0.00,,,0.00,weatherlink.com 1.10,2013-03-10 15:16:00,
2013-03-10 08:31:00,51.5,45.0,30.22,NW,324,0.0,1.0,78,0.00,,,0.00,weatherlink.com 1.10,2013-03-10 15:31:00,
2013-03-10 08:46:00,53.1,45.0,30.23,West,270,0.0,1.0,75,0.00,,,0.00,weatherlink.com 1.10,2013-03-10 15:46:00,
2013-03-10 09:01:00,54.2,46.0,30.23,West,260,0.0,2.0,73,0.00,,,0.00,weatherlink.com 1.10,2013-03-10 16:01:00,
2013-03-10 09:16:00,56.0,46.0,30.23,WSW,256,0.0,2.0,70,0.00,,,0.00,weatherlink.com 1.10,2013-03-10 16:16:00,
2013-03-10 09:31:00,58.4,46.0,30.23,WSW,258,0.0,0.0,64,0.00,,,0.00,weatherlink.com 1.10,2013-03-10 16:31:00,
2013-03-10 09:46:00,60.7,47.0,30.23,WSW,258,0.0,1.0,60,0.00,,,0.00,weatherlink.com 1.10,2013-03-10 16:46:00,
2013-03-10 10:01:00,61.0,46.0,30.22,West,265,0.0,3.0,58,0.00,,,0.00,weatherlink.com 1.10,2013-03-10 17:01:00,
2013-03-10 10:16:00,61.9,45.0,30.22,West,268,0.0,3.0,55,0.00,,,0.00,weatherlink.com 1.10,2013-03-10 17:16:00,
2013-03-10 10:31:00,62.6,46.0,30.22,SW,229,3.0,5.0,54,0.00,,,0.00,weatherlink.com 1.10,2013-03-10 17:31:00,
2013-03-10 10:46:00,64.0,46.0,30.21,West,262,1.0,5.0,52,0.00,,,0.00,weatherlink.com 1.10,2013-03-10 17:46:00,
2013-03-10 11:01:00,65.0,45.0,30.21,WSW,245,1.0,6.0,48,0.00,,,0.00,weatherlink.com 1.10,2013-03-10 18:01:00,
2013-03-10 11:16:00,66.8,44.0,30.21,West,259,3.0,5.0,44,0.00,,,0.00,weatherlink.com 1.10,2013-03-10 18:16:00,
2013-03-10 11:31:00,68.1,43.0,30.21,West,272,5.0,7.0,41,0.00,,,0.00,weatherlink.com 1.10,2013-03-10 18:31:00,
2013-03-10 11:46:00,69.5,40.0,30.21,WNW,301,4.0,8.0,34,0.00,,,0.00,weatherlink.com 1.10,2013-03-10 18:46:00,
2013-03-10 12:01:00,70.6,38.0,30.20,NW,307,1.0,5.0,31,0.00,,,0.00,weatherlink.com 1.10,2013-03-10 19:01:00,
2013-03-10 12:16:00,71.6,38.0,30.20,West,263,2.0,4.0,29,0.00,,,0.00,weatherlink.com 1.10,2013-03-10 19:16:00,
2013-03-10 12:32:00,73.1,41.0,30.19,West,272,6.0,8.0,32,0.00,,,0.00,weatherlink.com 1.10,2013-03-10 19:32:00,
2013-03-10 12:47:00,73.3,36.0,30.19,West,268,3.0,8.0,26,0.00,,,0.00,weatherlink.com 1.10,2013-03-10 19:47:00,
2013-03-10 13:02:00,74.1,38.0,30.18,West,276,6.0,11.0,27,0.00,,,0.00,weatherlink.com 1.10,2013-03-10 20:02:00,
2013-03-10 13:17:00,74.4,37.0,30.17,West,266,7.0,11.0,26,0.00,,,0.00,weatherlink.com 1.10,2013-03-10 20:17:00,
2013-03-10 13:32:00,74.8,31.0,30.16,West,278,4.0,11.0,20,0.00,,,0.00,weatherlink.com 1.10,2013-03-10 20:32:00,
2013-03-10 13:47:00,74.7,40.0,30.15,WNW,301,7.0,11.0,29,0.00,,,0.00,weatherlink.com 1.10,2013-03-10 20:47:00,
2013-03-10 14:02:00,75.3,35.0,30.15,WNW,292,6.0,10.0,23,0.00,,,0.00,weatherlink.com 1.10,2013-03-10 21:02:00,
2013-03-10 14:17:00,75.4,40.0,30.14,West,270,4.0,8.0,28,0.00,,,0.00,weatherlink.com 1.10,2013-03-10 21:17:00,
2013-03-10 14:32:00,74.4,41.0,30.14,West,270,5.0,10.0,30,0.00,,,0.00,weatherlink.com 1.10,2013-03-10 21:32:00,
2013-03-10 14:47:00,74.9,39.0,30.13,WNW,295,4.0,7.0,27,0.00,,,0.00,weatherlink.com 1.10,2013-03-10 21:47:00,
2013-03-10 15:02:00,75.3,34.0,30.13,NW,319,6.0,10.0,22,0.00,,,0.00,weatherlink.com 1.10,2013-03-10 22:02:00,
2013-03-10 15:17:00,74.3,32.0,30.13,NW,322,7.0,10.0,21,0.00,,,0.00,weatherlink.com 1.10,2013-03-10 22:17:00,
2013-03-10 15:32:00,73.6,38.0,30.12,WNW,283,7.0,11.0,27,0.00,,,0.00,weatherlink.com 1.10,2013-03-10 22:32:00,
2013-03-10 15:47:00,73.4,38.0,30.12,NW,311,7.0,10.0,28,0.00,,,0.00,weatherlink.com 1.10,2013-03-10 22:47:00,
2013-03-10 16:02:00,72.7,37.0,30.12,WNW,301,11.0,11.0,27,0.00,,,0.00,weatherlink.com 1.10,2013-03-10 23:02:00,
2013-03-10 16:17:00,72.4,36.0,30.12,West,262,7.0,11.0,27,0.00,,,0.00,weatherlink.com 1.10,2013-03-10 23:17:00,
2013-03-10 16:32:00,72.2,35.0,30.12,WNW,284,3.0,12.0,26,0.00,,,0.00,weatherlink.com 1.10,2013-03-10 23:32:00,
2013-03-10 16:47:00,73.0,31.0,30.12,WNW,295,4.0,9.0,21,0.00,,,0.00,weatherlink.com 1.10,2013-03-10 23:47:00,
2013-03-10 17:02:00,72.8,32.0,30.12,WSW,248,4.0,11.0,22,0.00,,,0.00,weatherlink.com 1.10,2013-03-11 00:02:00,
2013-03-10 17:17:00,72.7,30.0,30.11,West,271,4.0,9.0,21,0.00,,,0.00,weatherlink.com 1.10,2013-03-11 00:17:00,
2013-03-10 17:32:00,72.7,29.0,30.12,WSW,257,3.0,8.0,20,0.00,,,0.00,weatherlink.com 1.10,2013-03-11 00:32:00,
2013-03-10 17:47:00,72.5,29.0,30.12,WNW,299,7.0,9.0,20,0.00,,,0.00,weatherlink.com 1.10,2013-03-11 00:47:00,
2013-03-10 18:02:00,71.4,32.0,30.11,WNW,287,6.0,11.0,23,0.00,,,0.00,weatherlink.com 1.10,2013-03-11 01:02:00,
2013-03-10 18:17:00,70.7,33.0,30.11,WSW,258,3.0,7.0,25,0.00,,,0.00,weatherlink.com 1.10,2013-03-11 01:17:00,
2013-03-10 18:32:00,70.1,34.0,30.12,West,259,1.0,9.0,27,0.00,,,0.00,weatherlink.com 1.10,2013-03-11 01:32:00,
2013-03-10 18:47:00,68.4,39.0,30.12,WNW,285,3.0,4.0,34,0.00,,,0.00,weatherlink.com 1.10,2013-03-11 01:47:00,
2013-03-10 19:02:00,66.3,40.0,30.12,West,272,2.0,4.0,38,0.00,,,0.00,weatherlink.com 1.10,2013-03-11 02:02:00,
2013-03-10 19:17:00,65.2,41.0,30.12,West,281,0.0,4.0,42,0.00,,,0.00,weatherlink.com 1.10,2013-03-11 02:17:00,
2013-03-10 19:32:00,64.1,42.0,30.12,West,281,1.0,2.0,45,0.00,,,0.00,weatherlink.com 1.10,2013-03-11 02:32:00,
2013-03-10 19:47:00,63.2,43.0,30.12,WNW,289,1.0,2.0,48,0.00,,,0.00,weatherlink.com 1.10,2013-03-11 02:47:00,
2013-03-10 20:02:00,62.4,44.0,30.12,NW,307,0.0,1.0,51,0.00,,,0.00,weatherlink.com 1.10,2013-03-11 03:02:00,
2013-03-10 20:22:00,61.1,44.0,30.12,NW,307,0.0,1.0,54,0.00,,,0.00,weatherlink.com 1.10,2013-03-11 03:22:00,
2013-03-10 20:32:00,60.6,48.0,30.12,West,276,0.0,1.0,63,0.00,,,0.00,weatherlink.com 1.10,2013-03-11 03:32:00,
2013-03-10 20:47:00,59.9,49.0,30.13,SSE,162,0.0,1.0,67,0.00,,,0.00,weatherlink.com 1.10,2013-03-11 03:47:00,
2013-03-10 21:02:00,58.6,48.0,30.13,SSE,162,0.0,0.0,68,0.00,,,0.00,weatherlink.com 1.10,2013-03-11 04:02:00,
2013-03-10 21:17:00,57.8,48.0,30.13,SSE,162,0.0,0.0,71,0.00,,,0.00,weatherlink.com 1.10,2013-03-11 04:17:00,
2013-03-10 21:32:00,57.4,48.0,30.13,SSE,162,0.0,0.0,72,0.00,,,0.00,weatherlink.com 1.10,2013-03-11 04:32:00,
2013-03-10 21:47:00,57.2,49.0,30.14,SSE,163,0.0,1.0,74,0.00,,,0.00,weatherlink.com 1.10,2013-03-11 04:47:00,
2013-03-10 22:02:00,57.0,50.0,30.14,SSE,163,0.0,1.0,76,0.00,,,0.00,weatherlink.com 1.10,2013-03-11 05:02:00,
2013-03-10 22:17:00,56.4,49.0,30.14,SSE,162,0.0,0.0,77,0.00,,,0.00,weatherlink.com 1.10,2013-03-11 05:17:00,
2013-03-10 22:32:00,55.2,49.0,30.14,SSE,163,0.0,0.0,79,0.00,,,0.00,weatherlink.com 1.10,2013-03-11 05:32:00,
2013-03-10 22:47:00,54.7,49.0,30.14,SSE,162,0.0,0.0,80,0.00,,,0.00,weatherlink.com 1.10,2013-03-11 05:47:00,
2013-03-10 23:02:00,54.3,48.0,30.14,SSE,162,0.0,0.0,80,0.00,,,0.00,weatherlink.com 1.10,2013-03-11 06:02:00,
2013-03-10 23:17:00,53.9,48.0,30.14,SSE,162,0.0,0.0,81,0.00,,,0.00,weatherlink.com 1.10,2013-03-11 06:17:00,
2013-03-10 23:32:00,53.4,48.0,30.14,SSE,163,0.0,0.0,81,0.00,,,0.00,weatherlink.com 1.10,2013-03-11 06:32:00,
2013-03-10 23:47:00,52.9,48.0,30.14,SSE,163,0.0,0.0,82,0.00,,,0.00,weatherlink.com 1.10,2013-03-11 06:47:00,